Time;durP1;ratioP1;P1;durP2;ratioP2;P2;SDS_P1;SDS_P2;PMS_P1;PMS_P2;Temp;Humidity;BMP_temperature;BMP_pressure;BME280_temperature;BME280_humidity;BME280_pressure;Samples;Min_cycle;Max_cycle;Signal;HPM_P1;HPM_P2
2021/08/05 00:01:02;;;;;;;4.10;2.50;;;;;;;16.34;100.00;97538.59;5025481;28;20087;-61
2021/08/05 00:03:27;;;;;;;3.90;2.67;;;;;;;16.32;100.00;97527.34;5025150;28;20120;-62
2021/08/05 00:05:53;;;;;;;4.60;2.95;;;;;;;16.15;100.00;97533.78;5026554;28;20112;-59
2021/08/05 00:08:18;;;;;;;3.67;2.60;;;;;;;16.14;100.00;97540.03;5025307;28;20136;-63
2021/08/05 00:10:43;;;;;;;4.35;2.97;;;;;;;16.28;100.00;97536.38;5023690;28;20033;-60
2021/08/05 00:13:09;;;;;;;5.35;3.28;;;;;;;16.19;100.00;97534.41;5039250;28;20025;-60
2021/08/05 00:15:34;;;;;;;7.00;3.00;;;;;;;16.07;100.00;97537.94;5025985;28;20039;-60
2021/08/05 00:18:00;;;;;;;5.82;2.60;;;;;;;16.21;100.00;97544.84;5026744;28;20777;-61
2021/08/05 00:20:25;;;;;;;4.95;2.90;;;;;;;16.25;100.00;97539.25;5025300;28;20035;-61
2021/08/05 00:22:50;;;;;;;4.57;2.50;;;;;;;16.44;100.00;97530.03;5024274;28;20025;-62
2021/08/05 00:25:16;;;;;;;3.97;2.83;;;;;;;16.37;100.00;97535.72;5022329;28;20069;-61
2021/08/05 00:27:41;;;;;;;5.22;2.97;;;;;;;16.25;100.00;97531.38;5025435;28;20036;-61
2021/08/05 00:30:07;;;;;;;5.88;2.85;;;;;;;16.26;100.00;97537.47;5023018;28;20675;-60
2021/08/05 00:32:33;;;;;;;3.80;2.53;;;;;;;16.40;100.00;97533.84;5024497;28;20539;-61
2021/08/05 00:34:58;;;;;;;4.65;2.95;;;;;;;16.22;100.00;97528.13;5023625;28;20071;-61
2021/08/05 00:37:23;;;;;;;6.07;2.90;;;;;;;16.28;100.00;97525.88;5023127;28;20038;-65
2021/08/05 00:39:49;;;;;;;7.47;2.90;;;;;;;16.28;100.00;97525.88;5022250;28;20068;-62
2021/08/05 00:42:14;;;;;;;6.32;2.83;;;;;;;16.14;100.00;97520.78;5028216;28;20053;-61
2021/08/05 00:44:39;;;;;;;6.57;3.17;;;;;;;16.28;99.93;97520.59;5021265;28;20069;-60
2021/08/05 00:47:05;;;;;;;4.10;2.70;;;;;;;16.36;98.91;97518.28;5022972;28;20116;-61
2021/08/05 00:49:31;;;;;;;4.15;2.30;;;;;;;16.38;99.55;97515.53;5026097;28;20087;-62
2021/08/05 00:51:56;;;;;;;3.72;2.70;;;;;;;16.09;100.00;97521.09;5022561;28;20045;-62
2021/08/05 00:54:22;;;;;;;4.22;2.80;;;;;;;16.15;100.00;97519.81;5027910;28;20029;-62
2021/08/05 00:56:47;;;;;;;4.28;3.05;;;;;;;16.03;100.00;97512.78;5025954;28;20740;-62
2021/08/05 00:59:13;;;;;;;5.05;3.00;;;;;;;16.04;100.00;97512.66;5027916;28;20067;-63
2021/08/05 01:01:46;;;;;;;4.25;3.00;;;;;;;15.84;100.00;97506.19;5027851;28;20048;-62
2021/08/05 01:04:14;;;;;;;4.05;2.80;;;;;;;16.11;100.00;97502.56;5027061;28;20722;-61
2021/08/05 01:07:02;;;;;;;6.28;2.58;;;;;;;16.27;100.00;97492.63;5027605;28;20406;-62
2021/08/05 01:09:49;;;;;;;3.70;2.65;;;;;;;16.16;100.00;97495.19;5029032;28;20494;-61
2021/08/05 01:12:22;;;;;;;5.18;3.00;;;;;;;16.08;100.00;97493.13;5027878;28;20523;-62
2021/08/05 01:15:01;;;;;;;5.93;3.40;;;;;;;16.03;100.00;97489.97;5027020;28;20026;-64
2021/08/05 01:17:30;;;;;;;4.72;2.63;;;;;;;16.21;100.00;97482.56;5027840;28;20052;-61
2021/08/05 01:19:59;;;;;;;6.78;2.80;;;;;;;16.47;100.00;97482.41;5031915;28;20575;-61
2021/08/05 01:22:44;;;;;;;4.93;2.70;;;;;;;16.53;100.00;97482.00;5026172;28;20120;-62
2021/08/05 01:25:18;;;;;;;4.40;3.13;;;;;;;16.04;100.00;97485.53;5027913;28;20102;-62
2021/08/05 01:27:44;;;;;;;6.80;3.45;;;;;;;16.16;100.00;97482.03;5027426;28;20023;-63
2021/08/05 01:30:10;;;;;;;4.65;3.15;;;;;;;16.29;100.00;97476.72;5027129;28;20632;-61
2021/08/05 01:32:36;;;;;;;4.63;2.63;;;;;;;16.30;100.00;97471.34;5027883;28;20036;-62
2021/08/05 01:35:03;;;;;;;5.68;2.90;;;;;;;16.33;100.00;97476.38;5026772;28;20033;-62
2021/08/05 01:37:29;;;;;;;7.53;3.60;;;;;;;16.06;100.00;97484.47;5028235;28;20037;-61
2021/08/05 01:39:56;;;;;;;4.45;3.00;;;;;;;16.08;100.00;97482.59;5029066;28;20025;-61
2021/08/05 01:42:22;;;;;;;7.70;3.80;;;;;;;16.04;100.00;97480.28;5028257;28;20045;-61
2021/08/05 01:44:52;;;;;;;4.95;3.35;;;;;;;16.14;100.00;97476.03;5027841;28;20850;-61
2021/08/05 01:47:19;;;;;;;4.35;2.90;;;;;;;16.37;100.00;97475.19;5026161;28;20098;-63
2021/08/05 01:49:45;;;;;;;5.43;3.17;;;;;;;16.15;100.00;97480.34;5028488;28;20048;-62
2021/08/05 01:52:12;;;;;;;5.57;3.33;;;;;;;16.28;100.00;97475.88;5025825;28;20060;-65
2021/08/05 01:54:41;;;;;;;8.65;3.03;;;;;;;16.46;100.00;97472.84;5026547;28;20030;-64
2021/08/05 01:57:10;;;;;;;7.88;3.17;;;;;;;16.19;100.00;97469.50;5033040;28;20120;-61
2021/08/05 01:59:35;;;;;;;7.05;3.50;;;;;;;16.34;100.00;97470.19;5024187;28;20021;-62
2021/08/05 02:02:02;;;;;;;5.28;3.30;;;;;;;16.32;100.00;97469.44;5027342;28;20064;-64
2021/08/05 02:04:37;;;;;;;5.97;3.00;;;;;;;16.44;100.00;97466.88;5027367;28;20106;-62
2021/08/05 02:07:07;;;;;;;10.20;3.28;;;;;;;16.06;100.00;97467.84;5024107;28;20037;-61
2021/08/05 02:09:40;;;;;;;4.45;2.88;;;;;;;16.00;100.00;97459.44;5026010;28;20028;-60
2021/08/05 02:12:06;;;;;;;7.32;3.72;;;;;;;16.06;100.00;97454.69;5026174;28;20034;-63
2021/08/05 02:14:34;;;;;;;4.78;3.40;;;;;;;15.55;100.00;97455.63;5025921;28;20036;-62
2021/08/05 02:17:01;;;;;;;6.45;3.60;;;;;;;15.87;100.00;97458.66;5025090;28;20545;-61
2021/08/05 02:19:28;;;;;;;5.57;3.03;;;;;;;15.81;100.00;97459.09;5028208;28;20095;-62
2021/08/05 02:21:54;;;;;;;4.78;3.50;;;;;;;15.93;100.00;97450.31;5026100;28;20545;-62
2021/08/05 02:24:21;;;;;;;7.30;3.10;;;;;;;15.74;100.00;97453.41;5022861;28;20025;-62
2021/08/05 02:26:46;;;;;;;4.18;3.00;;;;;;;15.60;100.00;97457.00;5026338;28;20216;-62
2021/08/05 02:29:12;;;;;;;5.93;3.63;;;;;;;15.64;100.00;97454.13;5026006;28;20025;-62
2021/08/05 02:31:38;;;;;;;4.13;3.17;;;;;;;15.78;100.00;97444.34;5024345;28;20040;-62
2021/08/05 02:34:08;;;;;;;4.95;3.20;;;;;;;15.87;100.00;97442.88;5024666;28;20025;-62
2021/08/05 02:36:35;;;;;;;4.35;3.20;;;;;;;15.85;100.00;97444.78;5027049;28;20037;-62
2021/08/05 02:39:00;;;;;;;7.55;4.15;;;;;;;15.93;100.00;97441.59;5026702;28;20034;-61
2021/08/05 02:41:27;;;;;;;4.53;3.00;;;;;;;15.83;100.00;97436.16;5023749;28;20430;-62
2021/08/05 02:43:55;;;;;;;4.97;3.80;;;;;;;15.82;100.00;97431.00;5023658;28;20099;-63
2021/08/05 02:46:21;;;;;;;5.70;4.13;;;;;;;15.88;100.00;97434.03;4987461;28;1084557;-61
2021/08/05 02:48:47;;;;;;;7.22;4.10;;;;;;;15.38;100.00;97433.13;5027653;28;20061;-62
2021/08/05 02:51:14;;;;;;;6.50;4.38;;;;;;;15.44;100.00;97440.63;5026346;28;20060;-62
2021/08/05 02:53:40;;;;;;;6.00;4.05;;;;;;;15.43;100.00;97444.19;5026061;28;20033;-63
2021/08/05 02:56:08;;;;;;;6.65;4.15;;;;;;;15.68;100.00;97442.44;5026299;28;20704;-61
2021/08/05 02:58:34;;;;;;;7.45;4.50;;;;;;;15.78;100.00;97440.91;5026330;28;20522;-62
2021/08/05 03:00:59;;;;;;;7.57;4.57;;;;;;;15.64;100.00;97448.88;5026406;28;20622;-61
2021/08/05 03:03:24;;;;;;;5.25;3.70;;;;;;;15.86;100.00;97438.56;5024528;28;20039;-63
2021/08/05 03:05:51;;;;;;;5.93;3.95;;;;;;;16.13;100.00;97432.25;5026232;28;20044;-62
2021/08/05 03:08:17;;;;;;;5.90;3.83;;;;;;;15.79;100.00;97439.97;5024654;28;20037;-62
2021/08/05 03:10:42;;;;;;;6.50;4.32;;;;;;;15.69;100.00;97438.88;5027318;28;20090;-62
2021/08/05 03:13:07;;;;;;;6.28;4.50;;;;;;;15.72;100.00;97433.41;5025979;28;20028;-62
2021/08/05 03:15:33;;;;;;;9.68;5.00;;;;;;;15.56;100.00;97437.13;5025241;28;20041;-61
2021/08/05 03:17:58;;;;;;;7.50;4.55;;;;;;;15.53;100.00;97439.97;5024071;28;20299;-61
2021/08/05 03:20:23;;;;;;;6.13;4.32;;;;;;;15.77;100.00;97436.59;5025336;28;20048;-61
2021/08/05 03:22:49;;;;;;;6.78;4.07;;;;;;;15.90;100.00;97429.50;5026872;28;20132;-61
2021/08/05 03:25:14;;;;;;;6.38;4.40;;;;;;;15.89;100.00;97429.63;5025216;28;20064;-64
2021/08/05 03:27:42;;;;;;;7.13;4.78;;;;;;;15.88;100.00;97422.66;5023181;28;20087;-62
2021/08/05 03:30:08;;;;;;;7.70;4.53;;;;;;;15.85;100.00;97426.34;5022930;28;20499;-63
2021/08/05 03:32:34;;;;;;;7.53;4.68;;;;;;;15.80;100.00;97420.59;5022571;28;20458;-61
2021/08/05 03:34:59;;;;;;;7.47;4.75;;;;;;;15.64;100.00;97419.97;5026343;28;20021;-62
2021/08/05 03:37:25;;;;;;;7.25;4.80;;;;;;;15.58;100.00;97421.25;5023251;28;20399;-62
2021/08/05 03:39:50;;;;;;;6.07;4.70;;;;;;;15.92;100.00;97411.81;5027277;28;20031;-61
2021/08/05 03:42:16;;;;;;;10.45;5.57;;;;;;;15.57;100.00;97420.41;5025753;28;20048;-62
2021/08/05 03:44:41;;;;;;;7.47;4.72;;;;;;;15.84;100.00;97414.16;5022763;28;20025;-62
2021/08/05 03:47:06;;;;;;;6.53;4.35;;;;;;;15.76;100.00;97419.13;5025628;28;20662;-65
2021/08/05 03:49:32;;;;;;;11.98;5.07;;;;;;;16.06;100.00;97415.25;5025614;28;20416;-61
2021/08/05 03:51:57;;;;;;;10.20;5.80;;;;;;;15.92;100.00;97416.25;5025037;28;20041;-61
2021/08/05 03:54:22;;;;;;;8.90;5.30;;;;;;;15.48;100.00;97426.31;5023639;28;20025;-64
2021/08/05 03:56:48;;;;;;;9.55;5.50;;;;;;;15.63;100.00;97419.13;5024605;28;20171;-61
2021/08/05 03:59:13;;;;;;;7.63;5.10;;;;;;;15.70;100.00;97422.19;5022770;28;20163;-62
2021/08/05 04:01:38;;;;;;;8.88;5.07;;;;;;;15.78;100.00;97422.47;5024172;28;20068;-63
2021/08/05 04:04:04;;;;;;;10.05;5.85;;;;;;;15.69;100.00;97417.84;5022705;28;20032;-61
2021/08/05 04:06:29;;;;;;;7.55;5.47;;;;;;;15.51;100.00;97426.09;5025159;28;20033;-62
2021/08/05 04:08:54;;;;;;;9.73;5.88;;;;;;;15.77;100.00;97428.72;5027291;28;20120;-61
2021/08/05 04:11:20;;;;;;;7.22;5.00;;;;;;;15.93;100.00;97426.63;5025759;28;20052;-64
2021/08/05 04:13:45;;;;;;;10.60;4.75;;;;;;;15.94;100.00;97423.06;5025028;28;20028;-62
2021/08/05 04:16:11;;;;;;;7.78;5.75;;;;;;;16.04;100.00;97427.66;5023860;28;20112;-61
2021/08/05 04:18:36;;;;;;;9.88;6.30;;;;;;;15.73;100.00;97424.56;5025696;28;20751;-62
2021/08/05 04:21:01;;;;;;;7.07;4.95;;;;;;;15.93;100.00;97423.19;5024923;28;20120;-61
2021/08/05 04:23:27;;;;;;;8.95;5.75;;;;;;;15.96;100.00;97421.16;5024955;28;20477;-61
2021/08/05 04:25:52;;;;;;;7.15;4.93;;;;;;;15.80;100.00;97425.84;5025278;28;20049;-61
2021/08/05 04:28:18;;;;;;;8.32;5.57;;;;;;;15.93;100.00;97420.53;5025809;28;20024;-61
2021/08/05 04:30:44;;;;;;;8.15;5.30;;;;;;;16.10;100.00;97421.94;5027678;28;20037;-61
2021/08/05 04:33:09;;;;;;;5.78;4.07;;;;;;;16.25;100.00;97420.84;5025218;28;20106;-63
2021/08/05 04:35:35;;;;;;;9.32;6.45;;;;;;;15.89;100.00;97425.19;5025073;28;20037;-61
2021/08/05 04:38:00;;;;;;;10.73;5.80;;;;;;;16.06;100.00;97425.75;5026424;28;20029;-64
2021/08/05 04:40:29;;;;;;;9.70;5.50;;;;;;;16.08;100.00;97423.84;5028704;28;20765;-63
2021/08/05 04:42:55;;;;;;;7.25;5.00;;;;;;;16.17;100.00;97429.31;5024280;28;20025;-61
2021/08/05 04:45:21;;;;;;;9.30;5.47;;;;;;;16.17;100.00;97433.72;5024355;28;20029;-62
2021/08/05 04:47:50;;;;;;;7.82;4.90;;;;;;;16.09;100.00;97436.06;5024189;28;20040;-62
2021/08/05 04:50:17;;;;;;;8.45;4.90;;;;;;;16.07;100.00;97430.09;5022707;28;20083;-62
2021/08/05 04:52:42;;;;;;;6.75;5.10;;;;;;;15.92;100.00;97438.13;5025321;28;20036;-62
2021/08/05 04:55:08;;;;;;;7.82;5.35;;;;;;;16.13;100.00;97432.25;5022830;28;20080;-61
2021/08/05 04:57:33;;;;;;;8.90;4.97;;;;;;;16.41;100.00;97435.50;5023041;28;20063;-61
2021/08/05 04:59:58;;;;;;;9.48;5.38;;;;;;;16.23;100.00;97430.66;5026117;28;20570;-61
2021/08/05 05:02:24;;;;;;;6.07;3.97;;;;;;;16.28;100.00;97427.66;5021105;28;20037;-63
2021/08/05 05:04:49;;;;;;;6.82;4.75;;;;;;;16.19;100.00;97426.53;5022314;28;20104;-63
2021/08/05 05:07:14;;;;;;;9.15;5.15;;;;;;;16.14;100.00;97429.53;5025777;28;20028;-61
2021/08/05 05:09:39;;;;;;;8.05;5.68;;;;;;;16.21;100.00;97432.56;5025615;28;20454;-63
2021/08/05 05:12:05;;;;;;;8.52;5.03;;;;;;;15.95;100.00;97422.13;5027046;28;21042;-61
2021/08/05 05:14:31;;;;;;;7.72;5.25;;;;;;;16.26;100.00;97425.16;5035589;28;20390;-61
2021/08/05 05:16:56;;;;;;;9.18;4.80;;;;;;;16.66;100.00;97424.81;5027259;28;20029;-62
2021/08/05 05:19:23;;;;;;;7.75;4.90;;;;;;;16.33;100.00;97423.75;5027170;28;20029;-62
2021/08/05 05:21:49;;;;;;;6.95;4.55;;;;;;;16.40;100.00;97431.22;5025939;28;20102;-61
2021/08/05 05:24:14;;;;;;;9.00;6.30;;;;;;;16.19;100.00;97421.28;5025405;28;20042;-61
2021/08/05 05:26:39;;;;;;;7.70;5.10;;;;;;;16.45;100.00;97421.16;5024325;28;20029;-61
2021/08/05 05:29:05;;;;;;;4.90;3.70;;;;;;;16.84;100.00;97414.75;5024445;28;20037;-61
2021/08/05 05:31:30;;;;;;;8.38;4.82;;;;;;;16.89;100.00;97415.22;5025887;28;20522;-61
2021/08/05 05:33:55;;;;;;;11.50;5.78;;;;;;;16.64;100.00;97418.84;5024683;28;20022;-61
2021/08/05 05:36:21;;;;;;;10.13;6.20;;;;;;;16.56;100.00;97408.88;5025593;28;20048;-60
2021/08/05 05:38:46;;;;;;;7.82;4.93;;;;;;;16.73;100.00;97412.88;5028148;28;20088;-61
2021/08/05 05:41:11;;;;;;;6.53;4.20;;;;;;;16.94;99.40;97406.97;5028807;28;20124;-60
2021/08/05 05:43:37;;;;;;;8.65;5.30;;;;;;;16.89;99.01;97409.09;5030820;28;20043;-61
2021/08/05 05:46:02;;;;;;;7.55;5.18;;;;;;;16.83;100.00;97418.31;5028759;28;20128;-60
2021/08/05 05:48:27;;;;;;;6.45;5.00;;;;;;;16.87;100.00;97418.91;5028141;28;20040;-60
2021/08/05 05:50:53;;;;;;;12.57;5.82;;;;;;;16.79;100.00;97414.22;5029323;28;20036;-61
2021/08/05 05:53:18;;;;;;;7.63;5.40;;;;;;;16.93;100.00;97416.66;5030616;28;20071;-63
2021/08/05 05:55:43;;;;;;;7.70;4.75;;;;;;;16.82;100.00;97418.41;5027398;28;20132;-61
2021/08/05 05:58:09;;;;;;;6.72;4.40;;;;;;;16.87;99.91;97424.19;5030324;28;20033;-62
2021/08/05 06:00:35;;;;;;;11.40;5.10;;;;;;;16.98;99.17;97424.22;5029120;28;20044;-60
2021/08/05 06:03:05;;;;;;;10.07;4.68;;;;;;;16.99;100.00;97420.63;5030397;28;20149;-60
2021/08/05 06:05:30;;;;;;;9.20;5.25;;;;;;;16.71;100.00;97419.22;5028679;28;20030;-60
2021/08/05 06:07:56;;;;;;;10.23;5.30;;;;;;;16.60;100.00;97420.03;5029866;28;20025;-61
2021/08/05 06:10:22;;;;;;;7.65;4.70;;;;;;;16.91;100.00;97428.28;5030003;28;20033;-61
2021/08/05 06:12:48;;;;;;;14.45;5.05;;;;;;;16.94;100.00;97418.34;5027640;28;20033;-61
2021/08/05 06:15:14;;;;;;;8.52;4.25;;;;;;;17.20;99.76;97427.84;5030909;28;20029;-59
2021/08/05 06:17:44;;;;;;;8.60;4.72;;;;;;;17.04;100.00;97426.41;5029798;28;20033;-61
2021/08/05 06:20:11;;;;;;;8.57;4.70;;;;;;;17.07;100.00;97423.50;5030028;28;20029;-62
2021/08/05 06:22:37;;;;;;;10.55;4.28;;;;;;;17.14;99.26;97424.72;5030135;28;20108;-62
2021/08/05 06:25:04;;;;;;;10.20;4.10;;;;;;;17.12;99.78;97425.81;5026625;28;20125;-61
2021/08/05 06:27:29;;;;;;;9.40;4.95;;;;;;;17.07;99.87;97428.78;5037658;28;20049;-63
2021/08/05 06:29:55;;;;;;;7.47;4.78;;;;;;;17.10;100.00;97425.91;5028154;28;20079;-61
2021/08/05 06:32:20;;;;;;;6.30;4.30;;;;;;;17.12;100.00;97429.25;5025371;28;20048;-64
2021/08/05 06:34:45;;;;;;;10.90;4.68;;;;;;;17.33;100.00;97425.94;5028694;28;20083;-63
2021/08/05 06:37:11;;;;;;;8.60;5.00;;;;;;;17.17;100.00;97433.34;5029734;28;20110;-63
2021/08/05 06:39:36;;;;;;;7.75;4.80;;;;;;;17.22;100.00;97436.47;5027278;28;20029;-63
2021/08/05 06:42:02;;;;;;;8.43;5.15;;;;;;;17.12;100.00;97431.91;5028290;28;20116;-62
2021/08/05 06:44:27;;;;;;;10.95;6.18;;;;;;;17.21;100.00;97440.06;5028499;28;20033;-65
2021/08/05 06:46:52;;;;;;;8.98;5.63;;;;;;;16.92;100.00;97446.59;5028626;28;20985;-63
2021/08/05 06:49:18;;;;;;;9.50;6.10;;;;;;;17.02;100.00;97436.22;5030261;28;20033;-61
2021/08/05 06:51:43;;;;;;;9.18;5.55;;;;;;;17.13;100.00;97441.50;5024583;28;20037;-61
2021/08/05 06:54:08;;;;;;;10.68;5.60;;;;;;;17.45;99.65;97432.06;5028155;28;20179;-61
2021/08/05 06:56:34;;;;;;;10.98;5.57;;;;;;;17.22;100.00;97436.47;5025406;28;20041;-62
2021/08/05 06:58:59;;;;;;;11.68;5.90;;;;;;;17.43;98.67;97440.06;5027821;28;20032;-61
2021/08/05 07:01:25;;;;;;;9.68;5.88;;;;;;;17.38;100.00;97436.13;5027261;28;20120;-61
2021/08/05 07:03:50;;;;;;;14.25;5.95;;;;;;;17.63;100.00;97440.31;5028714;28;20128;-63
2021/08/05 07:06:16;;;;;;;11.25;6.35;;;;;;;17.46;99.77;97428.44;5025922;28;20037;-61
2021/08/05 07:08:42;;;;;;;12.23;6.85;;;;;;;17.80;97.14;97436.34;5026679;28;20152;-61
2021/08/05 07:11:07;;;;;;;9.80;6.07;;;;;;;17.76;97.49;97434.94;5028502;28;20510;-61
2021/08/05 07:13:32;;;;;;;8.45;6.43;;;;;;;17.78;98.41;97435.63;5029729;28;20471;-61
2021/08/05 07:15:58;;;;;;;11.13;6.88;;;;;;;17.68;96.92;97432.88;5028918;28;20106;-61
2021/08/05 07:18:23;;;;;;;9.35;7.07;;;;;;;17.83;94.95;97430.81;5029118;28;20050;-62
2021/08/05 07:20:49;;;;;;;9.02;6.55;;;;;;;17.90;95.93;97432.03;5030088;28;20704;-60
2021/08/05 07:23:14;;;;;;;11.02;7.43;;;;;;;17.85;95.74;97440.34;5026232;28;20503;-61
2021/08/05 07:25:39;;;;;;;10.65;7.78;;;;;;;17.74;95.14;97429.75;5028725;28;20057;-63
2021/08/05 07:28:05;;;;;;;10.30;7.95;;;;;;;17.76;94.97;97435.75;5028275;28;20184;-61
2021/08/05 07:30:31;;;;;;;13.90;7.88;;;;;;;17.76;97.23;97430.47;5028389;28;20043;-61
2021/08/05 07:32:57;;;;;;;9.63;7.00;;;;;;;18.12;95.25;97420.59;5027007;28;20029;-61
2021/08/05 07:35:23;;;;;;;12.07;6.95;;;;;;;18.49;93.28;97422.88;5028008;28;20036;-61
2021/08/05 07:37:48;;;;;;;7.93;5.60;;;;;;;18.72;90.69;97428.06;5028210;28;20029;-62
2021/08/05 07:40:17;;;;;;;12.85;6.65;;;;;;;18.49;90.66;97431.63;5028975;28;20040;-62
2021/08/05 07:42:42;;;;;;;7.82;6.03;;;;;;;18.69;90.13;97424.72;5025836;28;20068;-63
2021/08/05 07:45:08;;;;;;;13.77;7.10;;;;;;;18.36;91.77;97432.75;5029215;28;20112;-63
2021/08/05 07:47:33;;;;;;;9.55;6.75;;;;;;;18.58;91.67;97424.78;5029251;28;20017;-61
2021/08/05 07:49:59;;;;;;;13.02;8.07;;;;;;;18.17;92.34;97428.16;5028729;28;20140;-61
2021/08/05 07:52:24;;;;;;;12.00;7.35;;;;;;;18.24;91.23;97430.16;5026521;28;20111;-62
2021/08/05 07:54:50;;;;;;;10.98;7.18;;;;;;;18.64;92.25;97437.47;5030606;28;20689;-62
2021/08/05 07:57:17;;;;;;;13.57;7.43;;;;;;;18.65;92.04;97443.56;5027117;28;20037;-62
2021/08/05 07:59:45;;;;;;;10.23;7.28;;;;;;;18.51;93.07;97436.81;5028489;28;20016;-63
2021/08/05 08:02:10;;;;;;;10.95;7.45;;;;;;;18.34;94.43;97426.78;5027573;28;20044;-65
2021/08/05 08:04:35;;;;;;;11.07;7.38;;;;;;;17.98;92.81;97432.28;5028527;28;20024;-63
2021/08/05 08:07:01;;;;;;;9.50;6.85;;;;;;;18.55;89.76;97422.38;5029041;28;20372;-65
2021/08/05 08:09:27;;;;;;;11.55;6.97;;;;;;;18.96;88.11;97436.59;5028008;28;20030;-63
2021/08/05 08:11:54;;;;;;;10.77;6.65;;;;;;;19.12;90.24;97435.31;5027237;28;20045;-62
2021/08/05 08:14:20;;;;;;;7.20;5.40;;;;;;;19.43;87.73;97437.00;5028071;28;20025;-65
2021/08/05 08:16:45;;;;;;;7.82;6.10;;;;;;;19.11;86.80;97438.91;5027214;28;20086;-62
2021/08/05 08:19:10;;;;;;;10.63;5.70;;;;;;;19.15;88.70;97429.75;5029050;28;20118;-65
2021/08/05 08:21:36;;;;;;;8.73;6.05;;;;;;;19.63;87.03;97432.63;5026550;28;20037;-64
2021/08/05 08:24:02;;;;;;;8.25;5.45;;;;;;;19.61;83.34;97426.63;5026750;28;20029;-64
2021/08/05 08:26:27;;;;;;;9.77;5.80;;;;;;;20.01;84.66;97422.31;5028401;28;20038;-63
2021/08/05 08:28:53;;;;;;;8.10;5.93;;;;;;;20.00;81.02;97426.78;5027231;28;20070;-62
2021/08/05 08:31:18;;;;;;;7.95;5.80;;;;;;;20.18;78.64;97419.00;5025024;28;20048;-62
2021/08/05 08:33:44;;;;;;;8.23;5.82;;;;;;;20.43;77.50;97427.38;5027982;28;20124;-61
2021/08/05 08:36:09;;;;;;;9.15;5.68;;;;;;;19.50;80.08;97416.16;5027259;28;20073;-61
2021/08/05 08:38:35;;;;;;;9.90;5.55;;;;;;;19.82;78.30;97418.66;5027170;28;20041;-62
2021/08/05 08:41:00;;;;;;;6.57;4.70;;;;;;;20.54;78.15;97411.34;5028147;28;20037;-61
2021/08/05 08:43:27;;;;;;;5.72;4.20;;;;;;;21.01;74.11;97413.28;5028030;28;20438;-60
2021/08/05 08:45:54;;;;;;;4.60;3.53;;;;;;;21.92;71.65;97410.00;5027853;28;20049;-61
2021/08/05 08:48:20;;;;;;;5.05;3.80;;;;;;;21.47;71.16;97410.81;5028162;28;20026;-60
2021/08/05 08:50:48;;;;;;;6.15;3.90;;;;;;;21.37;70.88;97406.31;5027854;28;20037;-60
2021/08/05 08:53:17;;;;;;;5.65;4.00;;;;;;;21.46;70.72;97409.97;5027167;28;20080;-61
2021/08/05 08:55:44;;;;;;;6.80;4.20;;;;;;;21.30;72.31;97410.56;5028863;28;20491;-61
2021/08/05 08:58:10;;;;;;;6.15;3.97;;;;;;;21.11;72.34;97408.78;5028558;28;20038;-60
2021/08/05 09:00:39;;;;;;;5.78;3.78;;;;;;;21.14;73.59;97415.63;5026380;28;20414;-63
2021/08/05 09:03:05;;;;;;;5.95;3.55;;;;;;;21.13;71.81;97408.66;5025691;28;20075;-62
2021/08/05 09:05:31;;;;;;;4.68;3.40;;;;;;;20.85;73.15;97405.91;5026316;28;20044;-63
2021/08/05 09:07:58;;;;;;;5.38;3.20;;;;;;;21.42;72.74;97407.72;5027928;28;20106;-61
2021/08/05 09:10:24;;;;;;;6.18;3.50;;;;;;;21.71;71.01;97411.13;5026922;28;20037;-63
2021/08/05 09:12:54;;;;;;;8.30;4.88;;;;;;;20.89;71.70;97407.28;5027797;28;20044;-61
2021/08/05 09:15:34;;;;;;;7.45;3.85;;;;;;;21.18;71.82;97407.22;5027518;28;20083;-63
2021/08/05 09:18:00;;;;;;;8.73;3.90;;;;;;;21.14;72.48;97412.97;5031145;28;20123;-60
2021/08/05 09:20:25;;;;;;;5.60;3.85;;;;;;;21.50;70.80;97403.38;5031266;28;20037;-62
2021/08/05 09:22:51;;;;;;;8.05;3.63;;;;;;;21.34;69.72;97406.63;5032105;28;20745;-64
2021/08/05 09:25:33;;;;;;;5.80;4.10;;;;;;;21.11;69.11;97407.97;5033436;28;20040;-61
2021/08/05 09:28:14;;;;;;;5.57;4.20;;;;;;;21.52;68.01;97392.63;5030588;28;20025;-62
2021/08/05 09:30:41;;;;;;;5.95;3.92;;;;;;;22.15;67.49;97394.50;5029700;28;20040;-62
2021/08/05 09:33:15;;;;;;;4.70;3.50;;;;;;;22.46;66.15;97397.66;5030105;28;20025;-61
2021/08/05 09:35:42;;;;;;;5.18;3.90;;;;;;;23.54;64.35;97397.38;5029473;28;20094;-61
2021/08/05 09:38:25;;;;;;;7.03;4.18;;;;;;;23.01;63.05;97388.63;5031660;28;20033;-63
2021/08/05 09:41:03;;;;;;;4.95;3.53;;;;;;;25.04;59.64;97385.03;5028626;28;20041;-62
2021/08/05 09:43:28;;;;;;;7.18;4.13;;;;;;;22.82;62.56;97386.97;5030447;28;20056;-63
2021/08/05 09:45:54;;;;;;;11.02;5.25;;;;;;;23.02;61.67;97384.94;5029542;28;20076;-61
2021/08/05 09:48:36;;;;;;;6.53;4.50;;;;;;;24.00;60.18;97387.25;5029963;28;20021;-61
2021/08/05 09:51:10;;;;;;;6.35;4.70;;;;;;;23.55;61.03;97393.75;5033177;28;20937;-61
2021/08/05 09:53:53;;;;;;;8.27;4.53;;;;;;;23.89;58.07;97379.56;5043129;28;20030;-62
2021/08/05 09:56:21;;;;;;;4.65;3.42;;;;;;;25.86;55.05;97379.44;5031158;28;20801;-62
2021/08/05 09:58:48;;;;;;;5.43;4.10;;;;;;;24.60;59.22;97377.41;5031044;28;20080;-60
2021/08/05 10:01:14;;;;;;;5.28;3.60;;;;;;;26.41;55.85;97374.94;5032759;28;20038;-61
2021/08/05 10:03:39;;;;;;;6.07;4.18;;;;;;;26.89;50.58;97380.06;5030468;28;20036;-60
2021/08/05 10:06:08;;;;;;;6.38;4.07;;;;;;;24.41;56.08;97375.88;5030782;28;20462;-62
2021/08/05 10:08:40;;;;;;;6.85;4.47;;;;;;;24.55;55.18;97367.22;5029411;28;20094;-60
2021/08/05 10:11:07;;;;;;;7.72;3.90;;;;;;;25.39;54.50;97374.97;5031780;28;20092;-60
2021/08/05 10:13:37;;;;;;;7.10;3.50;;;;;;;24.60;57.43;97367.56;5029871;28;20567;-61
2021/08/05 10:16:05;;;;;;;5.00;3.50;;;;;;;24.89;57.00;97368.06;5029860;28;20042;-60
2021/08/05 10:18:32;;;;;;;5.57;4.07;;;;;;;24.71;56.11;97362.91;5029110;28;20025;-60
2021/08/05 10:21:00;;;;;;;6.53;3.80;;;;;;;25.34;55.12;97363.97;5028200;28;20048;-61
2021/08/05 10:23:28;;;;;;;5.30;3.80;;;;;;;26.40;52.64;97359.09;5030197;28;20026;-61
2021/08/05 10:26:00;;;;;;;4.85;3.72;;;;;;;27.43;50.60;97352.28;5030395;28;20044;-62
2021/08/05 10:28:26;;;;;;;4.75;3.88;;;;;;;28.68;46.61;97348.53;5031352;28;20013;-63
2021/08/05 10:30:56;;;;;;;4.57;3.22;;;;;;;27.44;47.50;97349.44;5030534;28;20668;-62
2021/08/05 10:33:23;;;;;;;5.38;3.50;;;;;;;25.98;48.89;97347.84;5029590;28;20082;-63
2021/08/05 10:35:49;;;;;;;5.20;2.85;;;;;;;29.00;45.61;97339.06;5027927;28;20346;-62
2021/08/05 10:38:19;;;;;;;4.20;3.42;;;;;;;26.48;46.73;97334.94;5028055;28;20582;-62
2021/08/05 10:40:47;;;;;;;5.45;3.30;;;;;;;28.88;44.60;97332.59;5029913;28;20140;-63
2021/08/05 10:43:13;;;;;;;5.55;3.45;;;;;;;26.40;46.88;97338.53;5029961;28;20707;-61
2021/08/05 10:45:39;;;;;;;4.13;2.97;;;;;;;27.11;45.71;97328.34;5031422;28;20041;-62
2021/08/05 10:48:06;;;;;;;4.38;2.90;;;;;;;26.77;50.08;97328.03;5028067;28;20068;-61
2021/08/05 10:50:45;;;;;;;4.80;3.50;;;;;;;26.23;49.25;97320.94;5030489;28;20116;-63
2021/08/05 10:53:32;;;;;;;5.55;3.20;;;;;;;25.17;49.93;97315.94;5029582;28;20498;-62
2021/08/05 10:56:18;;;;;;;4.20;2.78;;;;;;;25.20;49.96;97320.94;5030864;28;20049;-62
2021/08/05 10:59:07;;;;;;;4.95;3.10;;;;;;;23.72;54.55;97319.28;5030093;28;20044;-62
2021/08/05 11:01:50;;;;;;;5.20;3.08;;;;;;;23.35;57.88;97323.16;5016911;28;20096;-61
2021/08/05 11:04:34;;;;;;;3.50;2.65;;;;;;;23.57;56.78;97317.22;5030290;28;20494;-60
2021/08/05 11:07:22;;;;;;;5.68;2.83;;;;;;;23.32;57.76;97326.13;5029485;28;20056;-62
2021/08/05 11:09:48;;;;;;;4.15;2.90;;;;;;;22.79;59.05;97328.81;5030528;28;20036;-61
2021/08/05 11:12:41;;;;;;;7.13;3.10;;;;;;;22.62;60.08;97325.19;5028397;28;20040;-63
2021/08/05 11:15:23;;;;;;;5.93;3.20;;;;;;;22.69;59.01;97323.56;5029331;28;20082;-62
2021/08/05 11:18:10;;;;;;;5.10;3.60;;;;;;;22.57;59.22;97313.34;5030835;28;20017;-63
2021/08/05 11:20:51;;;;;;;4.35;3.00;;;;;;;22.81;59.84;97305.56;5030656;28;20037;-62
2021/08/05 11:23:30;;;;;;;4.75;3.05;;;;;;;23.14;58.16;97316.41;5030388;28;20026;-61
2021/08/05 11:25:55;;;;;;;4.05;3.00;;;;;;;23.28;59.12;97315.78;5030444;28;20721;-60
2021/08/05 11:28:28;;;;;;;4.75;3.20;;;;;;;23.33;57.68;97314.50;5029480;28;20041;-60